createdAt,value
2018-11-23T00:03:56.948Z,2.22
2018-11-23T00:09:55.703Z,2.27
2018-11-23T00:12:50.992Z,2.34
2018-11-23T00:15:22.672Z,2.18
2018-11-23T00:18:11.892Z,1.89
2018-11-23T00:20:43.117Z,1.86
2018-11-23T00:23:32.537Z,1.75
2018-11-23T00:26:22.880Z,1.69
2018-11-23T00:29:12.266Z,1.61
2018-11-23T00:33:05.050Z,1.57
2018-11-23T00:34:57.791Z,1.76
2018-11-23T00:37:47.647Z,1.97
2018-11-23T00:40:37.791Z,2.11
2018-11-23T00:46:10.262Z,2.20
2018-11-23T00:49:06.391Z,2.13
2018-11-23T00:51:36.720Z,2.07
2018-11-23T00:54:26.199Z,1.88
2018-11-23T00:59:38.861Z,2.23
2018-11-23T01:02:46.958Z,2.28
2018-11-23T01:05:14.966Z,2.34
2018-11-23T01:08:04.309Z,2.32
2018-11-23T01:10:54.601Z,2.31
2018-11-23T01:13:25.035Z,2.23
2018-11-23T01:18:56.247Z,1.77
2018-11-23T01:21:51.776Z,1.69
2018-11-23T01:24:28.814Z,1.67
2018-11-23T01:26:59.175Z,1.60
2018-11-23T01:32:17.824Z,1.91
2018-11-23T01:35:07.753Z,1.82
2018-11-23T01:37:38.983Z,1.98
2018-11-23T01:40:36.452Z,2.03
2018-11-23T01:43:25.656Z,1.92
2018-11-23T01:45:56.061Z,1.68
2018-11-23T01:48:27.391Z,1.47
2018-11-23T01:51:22.874Z,1.56
2018-11-23T01:54:13.058Z,1.69
2018-11-23T01:57:08.644Z,1.76
2018-11-23T01:59:50.892Z,1.81
2018-11-23T02:02:39.975Z,1.89
2018-11-23T02:05:29.286Z,1.83
2018-11-23T02:07:59.678Z,1.48
2018-11-23T02:13:31.011Z,1.43
2018-11-23T02:16:13.256Z,1.75
2018-11-23T02:21:44.999Z,1.92
2018-11-23T02:24:34.393Z,1.45
2018-11-23T02:29:47.927Z,1.43
2018-11-23T02:32:38.201Z,1.33
2018-11-23T02:35:33.579Z,1.48
2018-11-23T02:38:10.603Z,1.52
2018-11-23T02:40:59.950Z,1.51
2018-11-23T02:43:30.257Z,1.66
2018-11-23T02:46:25.674Z,1.57
2018-11-23T02:48:55.984Z,1.77
2018-11-23T02:51:26.317Z,1.68
2018-11-23T02:54:23.124Z,1.53
2018-11-23T02:57:18.398Z,1.38
2018-11-23T02:59:48.802Z,1.39
2018-11-23T03:02:25.697Z,1.11
2018-11-23T03:07:37.707Z,1.16
2018-11-23T03:10:28.408Z,1.22
2018-11-23T03:12:58.716Z,1.06
2018-11-23T03:15:35.105Z,0.97
2018-11-23T03:18:24.486Z,0.98
2018-11-23T03:20:54.821Z,0.98
2018-11-23T03:26:12.970Z,1.34
2018-11-23T03:31:32.623Z,1.28
2018-11-23T03:34:22.517Z,1.35
2018-11-23T03:36:52.914Z,1.59
2018-11-23T03:39:42.047Z,1.73
2018-11-23T03:42:31.397Z,1.76
2018-11-23T03:45:10.023Z,1.81
2018-11-23T03:47:59.363Z,1.46
2018-11-23T03:50:36.291Z,1.64
2018-11-23T03:53:26.442Z,1.73
2018-11-23T03:55:56.744Z,1.74
2018-11-23T03:58:27.100Z,1.76
2018-11-23T04:01:16.473Z,1.76
2018-11-23T04:03:47.686Z,1.72
2018-11-23T04:06:43.070Z,1.52
2018-11-23T04:09:38.357Z,1.44
2018-11-23T04:12:27.762Z,1.35
2018-11-23T04:15:23.266Z,1.32
2018-11-23T04:18:09.772Z,1.39
2018-11-23T04:21:08.151Z,1.49
2018-11-23T04:23:58.305Z,1.56
2018-11-23T04:26:47.749Z,1.60
2018-11-23T04:29:42.878Z,1.45
2018-11-23T04:32:14.118Z,1.26
2018-11-23T04:35:03.511Z,1.40
2018-11-23T04:37:53.790Z,1.38
2018-11-23T04:40:44.145Z,1.10
2018-11-23T04:46:20.979Z,0.93
2018-11-23T04:48:57.382Z,1.23
2018-11-23T04:51:33.687Z,1.12
2018-11-23T04:54:24.041Z,1.17
2018-11-23T04:56:54.336Z,1.05
2018-11-23T04:59:30.620Z,1.07
2018-11-23T05:02:27.183Z,0.92
2018-11-23T05:05:15.445Z,0.94
2018-11-23T05:07:46.950Z,1.01
2018-11-23T05:10:36.290Z,1.01
2018-11-23T05:13:25.939Z,1.04
2018-11-23T05:16:15.347Z,1.11
2018-11-23T05:19:10.550Z,1.13
2018-11-23T05:25:01.690Z,0.99
2018-11-23T05:27:51.047Z,0.97
2018-11-23T05:30:35.301Z,0.93
2018-11-23T05:33:19.888Z,0.93
2018-11-23T05:36:09.202Z,0.90
2018-11-23T05:38:59.389Z,0.94
2018-11-23T05:41:29.712Z,1.03
2018-11-23T05:44:12.459Z,0.90
2018-11-23T05:47:01.853Z,1.02
2018-11-23T05:49:57.640Z,0.92
2018-11-23T05:52:27.969Z,0.99
2018-11-23T05:55:17.329Z,0.93
2018-11-23T05:58:06.618Z,1.16
2018-11-23T06:00:55.997Z,1.32
2018-11-23T06:03:26.615Z,1.43
2018-11-23T06:05:56.911Z,1.47
2018-11-23T06:08:52.024Z,1.35
2018-11-23T06:14:30.504Z,1.35
2018-11-23T06:17:00.793Z,1.49
2018-11-23T06:19:31.115Z,1.42
2018-11-23T06:24:44.378Z,1.26
2018-11-23T06:27:14.695Z,1.27
2018-11-23T06:33:12.646Z,1.36
2018-11-23T06:35:42.954Z,1.39
2018-11-23T06:38:38.803Z,1.35
2018-11-23T06:41:15.880Z,1.37
2018-11-23T06:44:05.415Z,1.49
2018-11-23T06:49:45.287Z,1.56
2018-11-23T06:52:22.110Z,1.64
2018-11-23T06:57:54.375Z,1.42
2018-11-23T07:00:24.948Z,1.39
2018-11-23T07:02:59.064Z,1.31
2018-11-23T07:05:51.693Z,1.31
2018-11-23T07:08:40.829Z,1.25
2018-11-23T07:11:11.143Z,1.23
2018-11-23T07:13:52.581Z,1.24
2018-11-23T07:16:41.971Z,1.23
2018-11-23T07:19:31.270Z,1.35
2018-11-23T07:22:27.368Z,1.44
2018-11-23T07:25:17.510Z,1.35
2018-11-23T07:28:06.692Z,1.40
2018-11-23T07:30:36.974Z,1.36
2018-11-23T07:33:18.839Z,1.30
2018-11-23T07:35:49.221Z,1.30
2018-11-23T07:38:19.561Z,1.31
2018-11-23T07:41:27.851Z,1.29
2018-11-23T07:44:17.028Z,1.28
2018-11-23T07:46:47.380Z,1.47
2018-11-23T07:49:36.015Z,1.35
2018-11-23T07:52:06.531Z,1.32
2018-11-23T07:54:37.207Z,1.28
2018-11-23T07:57:26.587Z,1.20
2018-11-23T08:00:17.588Z,1.24
2018-11-23T08:03:06.715Z,1.26
2018-11-23T08:05:56.126Z,1.32
2018-11-23T08:08:26.541Z,1.34
2018-11-23T08:11:22.673Z,1.43
2018-11-23T08:14:11.771Z,1.34
2018-11-23T08:17:01.180Z,1.65
2018-11-23T08:19:51.201Z,1.70
2018-11-23T08:31:08.186Z,2.06
2018-11-23T08:36:21.648Z,2.09
2018-11-23T08:41:57.887Z,1.90
2018-11-23T08:44:53.677Z,1.81
2018-11-23T08:47:43.140Z,1.78
2018-11-23T08:50:39.345Z,1.81
2018-11-23T08:53:47.616Z,1.93
2018-11-23T08:56:17.981Z,1.80
2018-11-23T08:59:07.325Z,1.86
2018-11-23T09:01:55.677Z,2.06
2018-11-23T09:04:45.580Z,1.90
2018-11-23T09:10:34.230Z,1.88
2018-11-23T09:13:24.047Z,1.77
2018-11-23T09:16:13.304Z,1.98
2018-11-23T09:19:02.699Z,2.10
2018-11-23T09:21:52.841Z,2.24
2018-11-23T09:24:42.221Z,2.16
2018-11-23T09:27:37.662Z,2.29
2018-11-23T09:30:27.522Z,2.31
2018-11-23T09:33:17.804Z,2.21
2018-11-23T09:41:59.201Z,2.48
2018-11-23T09:53:02.899Z,2.52
2018-11-23T09:58:49.478Z,2.62
2018-11-23T10:01:38.909Z,2.54
2018-11-23T10:04:15.725Z,2.66
2018-11-23T10:06:47.004Z,2.76
2018-11-23T10:09:42.394Z,2.78
2018-11-23T10:12:12.753Z,2.79
2018-11-23T10:20:29.910Z,2.93
2018-11-23T10:23:06.706Z,3.15
2018-11-23T10:25:56.063Z,3.17
2018-11-23T10:28:26.359Z,3.23
2018-11-23T10:31:15.796Z,3.36
2018-11-23T10:34:04.882Z,3.36
2018-11-23T10:36:35.212Z,3.40
2018-11-23T10:39:25.419Z,3.47
2018-11-23T10:41:55.810Z,3.61
2018-11-23T10:44:26.169Z,3.66
2018-11-23T10:47:15.544Z,3.58
2018-11-23T10:49:45.868Z,3.54
2018-11-23T10:55:25.439Z,3.46
2018-11-23T10:58:14.853Z,3.63
2018-11-23T11:01:23.002Z,3.89
2018-11-23T11:04:23.317Z,3.92
2018-11-23T11:07:12.727Z,3.92
2018-11-23T11:10:02.056Z,3.88
2018-11-23T11:12:32.501Z,3.77
2018-11-23T11:15:02.794Z,3.72
2018-11-23T11:17:33.210Z,3.77
2018-11-23T11:20:29.878Z,3.78
2018-11-23T11:31:24.519Z,3.59
2018-11-23T11:34:14.836Z,3.51
2018-11-23T11:39:27.406Z,3.66
2018-11-23T11:42:23.257Z,3.65
2018-11-23T11:47:42.702Z,3.52
2018-11-23T11:50:33.298Z,3.48
2018-11-23T11:58:47.519Z,3.19
2018-11-23T12:07:09.255Z,3.45
2018-11-23T12:09:39.587Z,3.55
2018-11-23T12:12:16.264Z,3.47
2018-11-23T12:15:12.604Z,3.56
2018-11-23T12:20:43.626Z,3.61
2018-11-23T12:23:32.973Z,3.62
2018-11-23T12:26:22.397Z,3.65
2018-11-23T12:29:17.578Z,3.54
2018-11-23T12:32:07.000Z,3.55
2018-11-23T12:34:56.404Z,3.48
2018-11-23T12:37:45.835Z,3.48
2018-11-23T12:40:35.050Z,3.49
2018-11-23T12:43:25.496Z,3.68
2018-11-23T12:46:14.698Z,3.39
2018-11-23T12:48:46.062Z,3.59
2018-11-23T12:51:22.759Z,3.58
2018-11-23T12:53:53.103Z,3.58
2018-11-23T12:56:29.532Z,3.69
2018-11-23T13:01:47.909Z,3.66
2018-11-23T13:04:18.182Z,3.69
2018-11-23T13:15:34.099Z,3.54
2018-11-23T13:18:04.585Z,3.61
2018-11-23T13:20:54.882Z,3.70
2018-11-23T13:23:44.069Z,3.56
2018-11-23T13:26:33.504Z,3.41
2018-11-23T13:29:29.560Z,3.39
2018-11-23T13:32:19.042Z,3.43
2018-11-23T13:35:08.210Z,3.58
2018-11-23T13:37:57.555Z,3.56
2018-11-23T13:40:30.461Z,3.53
2018-11-23T13:46:05.249Z,3.54
2018-11-23T13:49:42.349Z,3.51
2018-11-23T13:51:50.689Z,3.65
2018-11-23T13:54:40.103Z,3.68
2018-11-23T13:59:52.502Z,3.72
2018-11-23T14:02:22.885Z,3.75
2018-11-23T14:04:58.853Z,3.78
2018-11-23T14:07:32.258Z,3.76
2018-11-23T14:10:02.824Z,3.68
2018-11-23T14:12:35.046Z,3.75
2018-11-23T14:15:43.998Z,3.72
2018-11-23T14:18:15.256Z,3.61
2018-11-23T14:20:57.968Z,3.74
2018-11-23T14:23:39.717Z,3.65
2018-11-23T14:29:24.922Z,3.64
2018-11-23T14:32:14.086Z,3.56
2018-11-23T14:35:04.456Z,3.65
2018-11-23T14:37:53.710Z,3.63
2018-11-23T14:40:24.143Z,3.67
2018-11-23T14:43:14.103Z,3.70
2018-11-23T14:46:09.720Z,3.72
2018-11-23T14:48:59.123Z,3.71
2018-11-23T14:51:29.547Z,3.71
2018-11-23T14:54:18.950Z,3.77
2018-11-23T14:57:09.120Z,3.57
2018-11-23T14:59:58.514Z,3.52
2018-11-23T15:02:49.014Z,3.53
2018-11-23T15:05:20.582Z,3.53
2018-11-23T15:07:50.908Z,3.57
2018-11-23T15:10:40.327Z,3.60
2018-11-23T15:13:22.643Z,3.63
2018-11-23T15:15:53.045Z,3.70
2018-11-23T15:18:42.452Z,3.58
2018-11-23T15:21:37.814Z,3.61
2018-11-23T15:27:08.586Z,3.58
2018-11-23T15:29:57.969Z,3.53
2018-11-23T15:32:28.313Z,3.55
2018-11-23T15:35:18.502Z,3.60
2018-11-23T15:40:32.387Z,3.56
2018-11-23T15:43:22.280Z,3.55
2018-11-23T15:49:13.639Z,3.43
2018-11-23T15:51:50.156Z,3.52
2018-11-23T15:54:20.512Z,3.59
2018-11-23T15:57:09.607Z,3.51
2018-11-23T16:02:22.433Z,3.55
2018-11-23T16:05:18.332Z,3.54
2018-11-23T16:07:49.393Z,3.59
2018-11-23T16:10:39.782Z,3.48
2018-11-23T16:15:58.113Z,3.57
2018-11-23T16:18:28.585Z,3.53
2018-11-23T16:21:17.952Z,3.54
2018-11-23T16:23:54.419Z,3.54
2018-11-23T16:29:06.791Z,3.51
2018-11-23T16:31:38.132Z,3.53
2018-11-23T16:34:08.423Z,3.43
2018-11-23T16:36:57.536Z,3.56
2018-11-23T16:39:46.692Z,3.54
2018-11-23T16:45:19.133Z,3.54
2018-11-23T16:47:49.766Z,3.54
2018-11-23T16:53:20.775Z,3.46
2018-11-23T16:59:05.836Z,3.46
2018-11-23T17:01:43.273Z,3.52
2018-11-23T17:04:13.589Z,3.42
2018-11-23T17:07:03.488Z,3.47
2018-11-23T17:12:54.308Z,3.43
2018-11-23T17:15:26.086Z,3.40
2018-11-23T17:24:03.934Z,3.42
2018-11-23T17:26:43.003Z,3.46
2018-11-23T17:29:32.583Z,3.49
2018-11-23T17:32:21.688Z,3.46
2018-11-23T17:35:12.482Z,3.49
2018-11-23T17:38:01.851Z,3.68
2018-11-23T17:43:13.849Z,3.40
2018-11-23T17:45:44.269Z,3.33
2018-11-23T17:51:15.852Z,3.07
2018-11-23T17:54:05.216Z,3.18
2018-11-23T17:56:35.635Z,3.18
2018-11-23T18:01:55.578Z,3.26
2018-11-23T18:04:26.004Z,3.13
2018-11-23T18:07:16.922Z,3.14
2018-11-23T18:13:25.627Z,2.99
2018-11-23T18:15:55.971Z,2.99
2018-11-23T18:18:34.613Z,2.93
2018-11-23T18:22:27.552Z,2.92
2018-11-23T18:27:04.252Z,3.01
2018-11-23T18:29:34.705Z,3.10
2018-11-23T18:32:11.308Z,3.13
2018-11-23T18:34:41.650Z,3.21
2018-11-23T18:39:56.292Z,3.11
2018-11-23T18:42:40.335Z,3.19
2018-11-23T18:48:16.256Z,3.04
2018-11-23T18:59:36.787Z,2.91
2018-11-23T19:02:07.553Z,2.94
2018-11-23T19:04:37.856Z,3.01
2018-11-23T19:07:08.698Z,2.93
2018-11-23T19:10:04.698Z,2.91
2018-11-23T19:19:03.019Z,2.93
2018-11-23T19:24:45.935Z,2.98
2018-11-23T19:27:16.465Z,2.98
2018-11-23T19:32:35.288Z,3.04
2018-11-23T19:35:07.481Z,2.98
2018-11-23T19:37:37.844Z,2.98
2018-11-23T19:40:27.216Z,3.06
2018-11-23T19:42:57.572Z,3.19
2018-11-23T19:48:46.051Z,3.09
2018-11-23T19:54:18.593Z,3.08
2018-11-23T19:57:10.444Z,3.08
2018-11-23T20:02:50.664Z,3.01
2018-11-23T20:05:21.224Z,3.03
2018-11-23T20:08:11.341Z,3.00
2018-11-23T20:10:41.915Z,3.05
2018-11-23T20:13:37.795Z,3.15
2018-11-23T20:25:25.607Z,3.04
2018-11-23T20:30:45.400Z,3.14
2018-11-23T20:36:58.414Z,3.06
2018-11-23T20:42:18.302Z,3.15
2018-11-23T20:47:49.812Z,3.07
2018-11-23T20:50:20.433Z,3.06
2018-11-23T20:55:53.106Z,3.19
2018-11-23T21:01:20.096Z,3.09
2018-11-23T21:03:50.424Z,3.09
2018-11-23T21:06:20.925Z,3.07
2018-11-23T21:09:10.027Z,3.10
2018-11-23T21:11:40.617Z,3.09
2018-11-23T21:14:10.946Z,3.16
2018-11-23T21:16:47.438Z,3.10
2018-11-23T21:19:36.848Z,3.11
2018-11-23T21:22:32.625Z,3.09
2018-11-23T21:28:07.656Z,3.13
2018-11-23T21:31:11.664Z,3.20
2018-11-23T21:36:36.596Z,3.03
2018-11-23T21:39:13.692Z,3.06
2018-11-23T21:47:12.369Z,3.02
2018-11-23T21:49:42.931Z,3.01
2018-11-23T21:55:33.407Z,3.19
2018-11-23T21:58:22.630Z,3.06
2018-11-23T22:01:12.031Z,3.09
2018-11-23T22:04:07.372Z,3.14
2018-11-23T22:06:56.835Z,3.16
2018-11-23T22:10:00.660Z,3.09
2018-11-23T22:12:45.168Z,3.15
2018-11-23T22:15:34.478Z,3.24
2018-11-23T22:18:05.039Z,3.19
2018-11-23T22:20:35.326Z,3.28
2018-11-23T22:23:24.703Z,3.27
2018-11-23T22:25:55.854Z,3.28
2018-11-23T22:28:32.638Z,3.22
2018-11-23T22:31:28.667Z,3.22
2018-11-23T22:39:42.691Z,3.15
2018-11-23T22:45:10.685Z,3.30
2018-11-23T22:48:00.122Z,3.34
2018-11-23T22:50:49.530Z,3.39
2018-11-23T22:53:25.985Z,3.42
2018-11-23T22:56:22.062Z,3.38
2018-11-23T22:58:58.484Z,3.42
2018-11-23T23:04:29.447Z,3.25
2018-11-23T23:07:18.814Z,3.25
2018-11-23T23:10:08.205Z,3.19
2018-11-23T23:12:57.582Z,3.34
2018-11-23T23:18:25.330Z,3.45
2018-11-23T23:20:55.662Z,3.42
2018-11-23T23:23:45.053Z,3.41
2018-11-23T23:26:15.590Z,3.41
2018-11-23T23:29:00.696Z,3.39
2018-11-23T23:31:31.017Z,3.37
2018-11-23T23:34:20.401Z,3.52
2018-11-23T23:36:50.859Z,3.45
2018-11-23T23:39:21.165Z,3.60
2018-11-23T23:41:51.727Z,3.54
2018-11-23T23:44:47.717Z,3.55
2018-11-23T23:50:10.120Z,3.42
2018-11-23T23:53:00.283Z,3.50
2018-11-23T23:55:31.554Z,3.41
2018-11-23T23:58:08.723Z,3.47
